Terminal Aerodrome Forecast
Issued by NWS Paducah, KY

Home | Current Version | Previous Version | Text Only | Print | Product List | Glossary On
Versions: 1 2 3 4 5 6 7 8 9 10 11
423
FTUS43 KPAH 261120
TAFEVV
TAF
KEVV 261120Z 2612/2712 00000KT 4SM BR SKC
      TEMPO 2612/2613 1SM BR
     FM261400 19004KT P6SM SKC
     FM261700 VRB03KT P6SM SCT050
     FM270100 00000KT P6SM SCT100=

USA.gov is the U.S. government's official web portal to all federal, state and local government web resources and services.